createdAt,value
2023-02-16T00:00:19.523Z,38.85
2023-02-16T00:03:22.635Z,38.83
2023-02-16T00:06:26.367Z,42.45
2023-02-16T00:09:28.888Z,41.70
2023-02-16T00:12:49.591Z,42.80
2023-02-16T00:15:52.247Z,43.33
2023-02-16T00:18:54.511Z,42.40
2023-02-16T00:21:59.077Z,42.00
2023-02-16T00:25:01.312Z,38.60
2023-02-16T00:28:08.000Z,40.08
2023-02-16T00:31:22.266Z,38.17
2023-02-16T00:34:32.938Z,37.95
2023-02-16T00:37:35.143Z,38.83
2023-02-16T00:40:38.016Z,38.08
2023-02-16T00:43:41.292Z,38.92
2023-02-16T00:46:45.049Z,36.30
2023-02-16T00:49:53.245Z,36.95
2023-02-16T00:52:58.342Z,36.25
2023-02-16T00:56:00.880Z,35.63
2023-02-16T00:59:06.174Z,35.92
2023-02-16T01:02:08.457Z,36.50
2023-02-16T01:05:11.345Z,36.65
2023-02-16T01:08:35.026Z,35.35
2023-02-16T01:11:39.289Z,36.25
2023-02-16T01:14:41.562Z,35.95
2023-02-16T01:17:44.381Z,34.80
2023-02-16T01:20:47.645Z,35.15
2023-02-16T01:23:50.273Z,34.25
2023-02-16T01:26:54.458Z,34.45
2023-02-16T01:29:56.970Z,34.83
2023-02-16T01:32:59.211Z,34.53
2023-02-16T01:36:01.686Z,35.35
2023-02-16T01:39:04.916Z,35.28
2023-02-16T01:42:30.749Z,35.95
2023-02-16T01:45:37.917Z,35.22
2023-02-16T01:48:41.157Z,34.63
2023-02-16T01:52:11.957Z,35.08
2023-02-16T01:55:24.745Z,33.17
2023-02-16T01:58:34.548Z,35.80
2023-02-16T02:01:36.966Z,34.10
2023-02-16T02:05:15.824Z,34.42
2023-02-16T02:08:33.363Z,35.30
2023-02-16T02:11:42.468Z,35.90
2023-02-16T02:14:45.018Z,35.35
2023-02-16T02:17:48.571Z,33.80
2023-02-16T02:21:41.145Z,34.85
2023-02-16T02:25:15.741Z,34.17
2023-02-16T02:28:32.381Z,34.67
2023-02-16T02:31:50.435Z,35.25
2023-02-16T02:34:53.024Z,35.50
2023-02-16T02:38:26.440Z,35.03
2023-02-16T02:42:06.193Z,36.35
2023-02-16T02:45:18.608Z,36.90
2023-02-16T02:48:22.458Z,38.15
2023-02-16T02:51:30.888Z,38.45
2023-02-16T02:54:59.049Z,36.00
2023-02-16T02:58:20.769Z,37.72
2023-02-16T03:01:25.020Z,37.15
2023-02-16T03:04:31.122Z,37.88
2023-02-16T03:07:48.736Z,35.90
2023-02-16T03:11:19.285Z,36.53
2023-02-16T03:14:48.039Z,35.45
2023-02-16T03:18:13.338Z,35.42
2023-02-16T03:21:35.180Z,33.47
2023-02-16T03:24:56.307Z,33.70
2023-02-16T03:28:21.336Z,33.83
2023-02-16T03:31:30.205Z,32.67
2023-02-16T03:34:35.852Z,32.78
2023-02-16T03:37:39.418Z,32.05
2023-02-16T03:40:45.008Z,33.63
2023-02-16T03:43:47.155Z,33.95
2023-02-16T03:46:50.408Z,33.33
2023-02-16T03:49:52.594Z,33.00
2023-02-16T03:53:06.730Z,32.30
2023-02-16T03:56:09.068Z,33.10
2023-02-16T03:59:11.518Z,33.80
2023-02-16T04:02:13.812Z,33.85
2023-02-16T04:05:16.323Z,35.55
2023-02-16T04:08:18.573Z,34.03
2023-02-16T04:11:39.868Z,31.25
2023-02-16T04:14:43.692Z,32.45
2023-02-16T04:17:46.801Z,34.22
2023-02-16T04:20:49.045Z,32.85
2023-02-16T04:23:51.510Z,32.35
2023-02-16T04:26:53.641Z,32.30
2023-02-16T04:29:56.045Z,33.15
2023-02-16T04:32:59.577Z,32.45
2023-02-16T04:36:02.165Z,31.42
2023-02-16T04:39:04.763Z,32.33
2023-02-16T04:42:07.309Z,33.25
2023-02-16T04:45:10.651Z,32.35
2023-02-16T04:48:13.050Z,33.20
2023-02-16T04:51:15.282Z,32.55
2023-02-16T04:54:17.712Z,32.97
2023-02-16T04:57:21.397Z,33.28
2023-02-16T05:00:24.079Z,34.10
2023-02-16T05:03:26.251Z,32.13
2023-02-16T05:06:28.710Z,32.08
2023-02-16T05:09:30.891Z,32.17
2023-02-16T05:12:51.864Z,31.90
2023-02-16T05:15:54.096Z,31.45
2023-02-16T05:18:58.906Z,32.45
2023-02-16T05:22:01.168Z,33.45
2023-02-16T05:25:03.864Z,32.42
2023-02-16T05:28:06.184Z,32.28
2023-02-16T05:31:08.716Z,31.75
2023-02-16T05:34:11.058Z,32.22
2023-02-16T05:37:15.218Z,32.63
2023-02-16T05:40:17.538Z,32.60
2023-02-16T05:43:19.988Z,32.60
2023-02-16T05:46:24.588Z,32.00
2023-02-16T05:49:27.104Z,32.70
2023-02-16T05:52:29.270Z,32.03
2023-02-16T05:55:31.703Z,30.20
2023-02-16T05:58:33.925Z,33.33
2023-02-16T06:01:36.365Z,31.92
2023-02-16T06:04:39.383Z,32.83
2023-02-16T06:07:41.514Z,32.85
2023-02-16T06:10:43.989Z,34.55
2023-02-16T06:13:46.166Z,33.35
2023-02-16T06:16:51.490Z,34.75
2023-02-16T06:19:54.253Z,32.92
2023-02-16T06:22:56.819Z,33.63
2023-02-16T06:25:58.987Z,36.53
2023-02-16T06:29:01.557Z,34.20
2023-02-16T06:32:04.235Z,34.15
2023-02-16T06:35:07.015Z,33.83
2023-02-16T06:38:09.118Z,34.90
2023-02-16T06:41:11.708Z,35.10
2023-02-16T06:44:15.803Z,33.50
2023-02-16T06:47:18.255Z,33.95
2023-02-16T06:50:20.543Z,34.05
2023-02-16T06:53:23.060Z,33.25
2023-02-16T06:56:25.432Z,33.83
2023-02-16T06:59:27.876Z,33.85
2023-02-16T07:02:30.019Z,34.30
2023-02-16T07:05:32.494Z,34.35
2023-02-16T07:08:35.895Z,34.40
2023-02-16T07:11:38.740Z,35.13
2023-02-16T07:14:43.071Z,35.33
2023-02-16T07:17:46.352Z,35.78
2023-02-16T07:20:49.075Z,36.35
2023-02-16T07:23:51.607Z,36.53
2023-02-16T07:26:55.047Z,36.03
2023-02-16T07:29:57.567Z,34.53
2023-02-16T07:32:59.874Z,36.70
2023-02-16T07:36:03.318Z,36.80
2023-02-16T07:39:05.658Z,36.95
2023-02-16T07:42:08.079Z,36.78
2023-02-16T07:45:10.236Z,40.50
2023-02-16T07:48:13.912Z,40.15
2023-02-16T07:51:30.765Z,40.60
2023-02-16T07:54:33.532Z,41.37
2023-02-16T07:57:38.759Z,42.47
2023-02-16T08:00:41.228Z,40.58
2023-02-16T08:03:43.775Z,40.67
2023-02-16T08:06:48.588Z,42.20
2023-02-16T08:09:51.196Z,42.08
2023-02-16T08:12:53.355Z,42.13
2023-02-16T08:15:55.779Z,40.38
2023-02-16T08:18:59.961Z,41.15
2023-02-16T08:22:02.809Z,41.28
2023-02-16T08:25:06.887Z,41.47
2023-02-16T08:28:09.680Z,41.80
2023-02-16T08:31:20.086Z,43.13
2023-02-16T08:34:24.079Z,41.70
2023-02-16T08:37:26.288Z,43.17
2023-02-16T08:40:30.159Z,42.47
2023-02-16T08:43:32.508Z,40.78
2023-02-16T08:46:37.187Z,43.67
2023-02-16T08:49:39.602Z,43.20
2023-02-16T08:52:42.077Z,47.70
2023-02-16T08:55:51.593Z,44.53
2023-02-16T08:58:54.057Z,48.85
2023-02-16T09:01:58.154Z,48.83
2023-02-16T09:05:01.117Z,50.15
2023-02-16T09:08:03.464Z,55.88
2023-02-16T09:11:08.926Z,55.60
2023-02-16T09:14:11.133Z,56.75
2023-02-16T09:17:14.301Z,56.40
2023-02-16T09:20:17.223Z,54.92
2023-02-16T09:23:20.537Z,53.00
2023-02-16T09:26:24.680Z,54.47
2023-02-16T09:29:27.178Z,50.47
2023-02-16T09:32:30.615Z,52.58
2023-02-16T09:35:33.085Z,53.65
2023-02-16T09:38:36.686Z,56.65
2023-02-16T09:42:05.559Z,54.92
2023-02-16T09:45:20.418Z,58.87
2023-02-16T09:48:37.379Z,62.15
2023-02-16T09:51:44.612Z,69.37
2023-02-16T09:54:51.857Z,63.72
2023-02-16T09:58:21.553Z,63.15
2023-02-16T10:01:47.810Z,61.60
2023-02-16T10:05:04.504Z,58.42
2023-02-16T10:08:13.307Z,60.78
2023-02-16T10:11:48.825Z,57.70
2023-02-16T10:15:01.370Z,58.72
2023-02-16T10:18:16.405Z,58.42
2023-02-16T10:21:26.295Z,57.20
2023-02-16T10:24:34.568Z,54.73
2023-02-16T10:27:45.701Z,54.47
2023-02-16T10:31:01.472Z,54.75
2023-02-16T10:34:06.805Z,53.63
2023-02-16T10:37:47.617Z,54.90
2023-02-16T10:41:01.434Z,53.42
2023-02-16T10:44:22.723Z,53.90
2023-02-16T10:47:36.828Z,53.75
2023-02-16T10:50:42.121Z,51.90
2023-02-16T10:53:50.948Z,51.13
2023-02-16T10:56:59.502Z,44.35
2023-02-16T11:00:06.736Z,42.45
2023-02-16T11:03:12.588Z,42.42
2023-02-16T11:06:17.955Z,41.72
2023-02-16T11:09:27.859Z,42.20
2023-02-16T11:12:33.443Z,41.03
2023-02-16T11:15:39.235Z,39.83
2023-02-16T11:18:45.385Z,41.13
2023-02-16T11:21:55.214Z,42.40
2023-02-16T11:25:22.561Z,40.80
2023-02-16T11:28:48.581Z,41.15
2023-02-16T11:31:50.857Z,43.63
2023-02-16T11:34:53.818Z,42.58
2023-02-16T11:37:56.073Z,44.95
2023-02-16T11:41:00.774Z,46.15
2023-02-16T11:44:04.103Z,45.40
2023-02-16T11:47:21.287Z,42.30
2023-02-16T11:50:38.434Z,45.92
2023-02-16T11:53:43.387Z,44.10
2023-02-16T11:57:02.394Z,42.03
2023-02-16T12:00:19.254Z,36.85
2023-02-16T12:03:31.456Z,38.67
2023-02-16T12:06:49.880Z,41.70
2023-02-16T12:10:31.283Z,41.85
2023-02-16T12:13:58.340Z,39.13
2023-02-16T12:17:07.862Z,39.72
2023-02-16T12:20:28.249Z,40.83
2023-02-16T12:23:39.881Z,39.78
2023-02-16T12:26:52.024Z,38.78
2023-02-16T12:30:03.196Z,39.08
2023-02-16T12:33:13.480Z,39.28
2023-02-16T12:36:25.489Z,38.40
2023-02-16T12:39:55.352Z,37.65
2023-02-16T12:43:22.505Z,35.63
2023-02-16T12:46:30.513Z,36.08
2023-02-16T12:49:55.152Z,36.67
2023-02-16T12:53:03.497Z,34.85
2023-02-16T12:56:14.440Z,34.78
2023-02-16T12:59:24.940Z,35.45
2023-02-16T13:02:43.216Z,33.80
2023-02-16T13:05:51.234Z,33.15
2023-02-16T13:09:16.216Z,32.30
2023-02-16T13:12:31.507Z,32.70
2023-02-16T13:15:38.272Z,30.62
2023-02-16T13:18:44.288Z,32.28
2023-02-16T13:21:52.806Z,29.73
2023-02-16T13:25:04.110Z,27.45
2023-02-16T13:28:23.081Z,25.90
2023-02-16T13:31:49.261Z,26.10
2023-02-16T13:35:30.138Z,26.37
2023-02-16T13:38:43.634Z,27.45
2023-02-16T13:42:13.232Z,26.17
2023-02-16T13:45:22.933Z,25.62
2023-02-16T13:48:39.339Z,25.58
2023-02-16T13:51:47.170Z,26.75
2023-02-16T13:54:50.050Z,25.67
2023-02-16T13:58:01.695Z,25.10
2023-02-16T14:01:39.105Z,25.67
2023-02-16T14:04:50.393Z,26.42
2023-02-16T14:08:11.845Z,30.15
2023-02-16T14:11:14.274Z,27.37
2023-02-16T14:14:28.626Z,29.52
2023-02-16T14:17:37.400Z,29.27
2023-02-16T14:20:39.624Z,27.02
2023-02-16T14:23:42.825Z,29.02
2023-02-16T14:26:59.445Z,28.50
2023-02-16T14:30:04.398Z,29.87
2023-02-16T14:33:12.445Z,29.20
2023-02-16T14:36:16.636Z,30.25
2023-02-16T14:39:24.756Z,31.27
2023-02-16T14:42:34.925Z,30.40
2023-02-16T14:45:59.096Z,31.15
2023-02-16T14:49:04.994Z,29.90
2023-02-16T14:52:37.145Z,29.50
2023-02-16T14:56:06.660Z,31.15
2023-02-16T14:59:32.789Z,29.85
2023-02-16T15:02:40.812Z,29.50
2023-02-16T15:05:49.458Z,30.83
2023-02-16T15:08:59.284Z,32.65
2023-02-16T15:12:23.048Z,32.53
2023-02-16T15:15:44.032Z,33.42
2023-02-16T15:18:53.468Z,33.35
2023-02-16T15:22:19.277Z,33.63
2023-02-16T15:25:34.717Z,33.58
2023-02-16T15:28:39.631Z,33.25
2023-02-16T15:31:41.997Z,33.88
2023-02-16T15:34:45.243Z,33.42
2023-02-16T15:37:47.799Z,34.45
2023-02-16T15:40:55.134Z,33.60
2023-02-16T15:43:58.711Z,34.17
2023-02-16T15:47:37.375Z,34.50
2023-02-16T15:50:39.728Z,35.75
2023-02-16T15:53:45.112Z,35.03
2023-02-16T15:56:48.986Z,35.95
2023-02-16T15:59:57.060Z,36.97
2023-02-16T16:03:01.087Z,35.63
2023-02-16T16:06:08.508Z,35.55
2023-02-16T16:09:27.769Z,36.03
2023-02-16T16:12:30.838Z,35.90
2023-02-16T16:15:45.254Z,35.78
2023-02-16T16:18:50.995Z,37.63
2023-02-16T16:21:54.673Z,36.53
2023-02-16T16:24:57.243Z,36.17
2023-02-16T16:27:59.963Z,37.10
2023-02-16T16:31:26.012Z,37.42
2023-02-16T16:34:34.230Z,36.47
2023-02-16T16:37:37.284Z,38.03
2023-02-16T16:40:40.063Z,37.10
2023-02-16T16:43:53.816Z,36.33
2023-02-16T16:46:56.254Z,37.45
2023-02-16T16:50:05.978Z,39.03
2023-02-16T16:53:43.121Z,38.63
2023-02-16T16:56:45.550Z,37.58
2023-02-16T16:59:47.724Z,39.33
2023-02-16T17:02:50.183Z,39.63
2023-02-16T17:05:52.488Z,38.65
2023-02-16T17:08:55.250Z,40.30
2023-02-16T17:11:58.439Z,40.47
2023-02-16T17:15:01.707Z,41.05
2023-02-16T17:18:04.842Z,40.70
2023-02-16T17:21:07.580Z,40.22
2023-02-16T17:24:10.263Z,39.03
2023-02-16T17:27:13.884Z,38.13
2023-02-16T17:30:16.226Z,37.83
2023-02-16T17:33:18.755Z,36.13
2023-02-16T17:36:22.583Z,36.40
2023-02-16T17:39:25.276Z,37.40
2023-02-16T17:42:28.323Z,36.60
2023-02-16T17:45:30.969Z,36.67
2023-02-16T17:48:33.309Z,36.97
2023-02-16T17:51:36.503Z,38.03
2023-02-16T17:54:39.132Z,38.80
2023-02-16T17:57:41.680Z,38.83
2023-02-16T18:00:45.111Z,38.47
2023-02-16T18:03:47.689Z,40.90
2023-02-16T18:06:50.764Z,40.25
2023-02-16T18:09:54.155Z,40.42
2023-02-16T18:12:56.311Z,39.80
2023-02-16T18:16:01.786Z,40.05
2023-02-16T18:19:04.508Z,39.88
2023-02-16T18:22:06.925Z,39.53
2023-02-16T18:25:09.217Z,41.53
2023-02-16T18:28:20.183Z,43.00
2023-02-16T18:31:22.472Z,45.10
2023-02-16T18:34:26.292Z,46.65
2023-02-16T18:37:28.838Z,45.88
2023-02-16T18:40:31.266Z,46.20
2023-02-16T18:43:35.760Z,47.08
2023-02-16T18:46:38.469Z,45.92
2023-02-16T18:49:41.842Z,45.67
2023-02-16T18:52:44.934Z,45.50
2023-02-16T18:55:47.153Z,45.55
2023-02-16T18:58:49.582Z,46.55
2023-02-16T19:01:56.273Z,47.45
2023-02-16T19:04:58.685Z,46.90
2023-02-16T19:08:00.911Z,47.42
2023-02-16T19:11:03.444Z,47.70
2023-02-16T19:14:05.625Z,47.83
2023-02-16T19:17:08.343Z,51.08
2023-02-16T19:20:14.485Z,49.47
2023-02-16T19:23:17.575Z,49.55
2023-02-16T19:26:20.031Z,48.05
2023-02-16T19:29:22.511Z,47.62
2023-02-16T19:32:24.738Z,48.72
2023-02-16T19:35:27.213Z,48.35
2023-02-16T19:38:29.687Z,46.40
2023-02-16T19:41:35.711Z,46.83
2023-02-16T19:44:39.308Z,46.83
2023-02-16T19:47:41.821Z,46.85
2023-02-16T19:50:44.438Z,46.92
2023-02-16T19:53:47.499Z,48.58
2023-02-16T19:56:49.652Z,49.00
2023-02-16T19:59:52.070Z,49.13
2023-02-16T20:02:54.301Z,50.63
2023-02-16T20:05:56.711Z,49.20
2023-02-16T20:09:00.752Z,49.95
2023-02-16T20:12:04.625Z,48.47
2023-02-16T20:15:07.065Z,49.65
2023-02-16T20:18:10.120Z,48.95
2023-02-16T20:21:20.905Z,49.78
2023-02-16T20:24:23.330Z,50.65
2023-02-16T20:27:27.737Z,49.05
2023-02-16T20:30:30.744Z,48.97
2023-02-16T20:33:32.949Z,49.53
2023-02-16T20:36:36.462Z,47.92
2023-02-16T20:39:38.638Z,47.25
2023-02-16T20:42:41.091Z,48.63
2023-02-16T20:45:43.313Z,49.33
2023-02-16T20:48:46.225Z,48.00
2023-02-16T20:51:48.466Z,50.42
2023-02-16T20:54:50.902Z,48.40
2023-02-16T20:57:53.115Z,50.30
2023-02-16T21:00:55.973Z,49.38
2023-02-16T21:03:59.915Z,50.80
2023-02-16T21:07:02.384Z,49.30
2023-02-16T21:10:07.590Z,47.75
2023-02-16T21:13:10.100Z,50.35
2023-02-16T21:16:14.113Z,49.83
2023-02-16T21:19:22.911Z,48.67
2023-02-16T21:22:25.634Z,47.62
2023-02-16T21:25:28.087Z,51.50
2023-02-16T21:28:30.421Z,47.83
2023-02-16T21:31:32.860Z,52.00
2023-02-16T21:34:35.406Z,48.92
2023-02-16T21:37:38.672Z,49.53
2023-02-16T21:41:12.934Z,48.03
2023-02-16T21:44:18.241Z,50.72
2023-02-16T21:47:39.173Z,50.50
2023-02-16T21:53:44.344Z,48.75
2023-02-16T21:56:50.322Z,50.45
2023-02-16T21:59:52.713Z,51.10
2023-02-16T22:02:55.142Z,48.97
2023-02-16T22:06:02.375Z,48.00
2023-02-16T22:09:10.400Z,48.50
2023-02-16T22:12:12.864Z,48.60
2023-02-16T22:15:15.072Z,48.17
2023-02-16T22:18:17.444Z,48.33
2023-02-16T22:21:19.658Z,48.40
2023-02-16T22:24:22.077Z,48.90
2023-02-16T22:27:24.237Z,49.70
2023-02-16T22:30:26.743Z,51.13
2023-02-16T22:33:28.915Z,50.40
2023-02-16T22:36:31.500Z,48.75
2023-02-16T22:39:33.669Z,49.15
2023-02-16T22:42:38.648Z,49.65
2023-02-16T22:45:40.822Z,49.58
2023-02-16T22:48:44.597Z,48.63
2023-02-16T22:51:46.759Z,49.65
2023-02-16T22:54:52.284Z,49.42
2023-02-16T22:57:54.447Z,49.30
2023-02-16T23:00:56.886Z,48.38
2023-02-16T23:04:00.784Z,47.65
2023-02-16T23:07:03.266Z,49.10
2023-02-16T23:10:06.060Z,48.45
2023-02-16T23:13:09.492Z,50.58
2023-02-16T23:16:14.825Z,48.20
2023-02-16T23:19:21.456Z,47.55
2023-02-16T23:22:23.587Z,47.28
2023-02-16T23:25:35.462Z,47.58
2023-02-16T23:28:39.296Z,48.08
2023-02-16T23:31:43.897Z,48.15
2023-02-16T23:34:46.035Z,47.17
2023-02-16T23:37:48.541Z,46.47
2023-02-16T23:41:16.863Z,48.20
2023-02-16T23:44:19.314Z,46.28
2023-02-16T23:47:22.444Z,45.72
2023-02-16T23:50:25.041Z,47.88
2023-02-16T23:53:28.380Z,48.42
2023-02-16T23:56:30.968Z,47.22
2023-02-16T23:59:33.794Z,49.33
